sensor_id;sensor_type;location;lat;lon;timestamp;P1;durP1;ratioP1;P2;durP2;ratioP2
14414;SDS011;7307;50.852;4.314;2022-09-21T00:00:52;8.20;;;1.93;;
14414;SDS011;7307;50.852;4.314;2022-09-21T00:03:17;6.90;;;1.73;;
14414;SDS011;7307;50.852;4.314;2022-09-21T00:05:43;7.53;;;1.97;;
14414;SDS011;7307;50.852;4.314;2022-09-21T00:08:10;9.33;;;1.80;;
14414;SDS011;7307;50.852;4.314;2022-09-21T00:10:37;8.23;;;1.60;;
14414;SDS011;7307;50.852;4.314;2022-09-21T00:13:03;9.50;;;1.93;;
14414;SDS011;7307;50.852;4.314;2022-09-21T00:15:29;7.30;;;2.27;;
14414;SDS011;7307;50.852;4.314;2022-09-21T00:17:56;5.77;;;1.83;;
14414;SDS011;7307;50.852;4.314;2022-09-21T00:20:24;7.30;;;2.03;;
14414;SDS011;7307;50.852;4.314;2022-09-21T00:22:51;6.83;;;1.80;;
14414;SDS011;7307;50.852;4.314;2022-09-21T00:25:17;6.83;;;1.90;;
14414;SDS011;7307;50.852;4.314;2022-09-21T00:27:44;6.17;;;1.73;;
14414;SDS011;7307;50.852;4.314;2022-09-21T00:30:11;7.13;;;2.17;;
14414;SDS011;7307;50.852;4.314;2022-09-21T00:32:37;3.27;;;1.47;;
14414;SDS011;7307;50.852;4.314;2022-09-21T00:35:04;7.83;;;2.50;;
14414;SDS011;7307;50.852;4.314;2022-09-21T00:37:31;6.53;;;1.80;;
14414;SDS011;7307;50.852;4.314;2022-09-21T00:39:58;8.60;;;1.80;;
14414;SDS011;7307;50.852;4.314;2022-09-21T00:42:25;6.63;;;2.47;;
14414;SDS011;7307;50.852;4.314;2022-09-21T00:44:53;6.83;;;1.90;;
14414;SDS011;7307;50.852;4.314;2022-09-21T00:47:25;6.27;;;2.20;;
14414;SDS011;7307;50.852;4.314;2022-09-21T00:49:58;5.23;;;1.90;;
14414;SDS011;7307;50.852;4.314;2022-09-21T00:52:27;5.50;;;1.83;;
14414;SDS011;7307;50.852;4.314;2022-09-21T00:54:57;6.03;;;2.07;;
14414;SDS011;7307;50.852;4.314;2022-09-21T00:57:28;4.53;;;2.17;;
14414;SDS011;7307;50.852;4.314;2022-09-21T00:59:55;5.60;;;2.03;;
14414;SDS011;7307;50.852;4.314;2022-09-21T01:02:25;7.20;;;2.13;;
14414;SDS011;7307;50.852;4.314;2022-09-21T01:04:51;6.83;;;2.10;;
14414;SDS011;7307;50.852;4.314;2022-09-21T01:07:24;5.90;;;2.00;;
14414;SDS011;7307;50.852;4.314;2022-09-21T01:09:56;6.87;;;2.20;;
14414;SDS011;7307;50.852;4.314;2022-09-21T01:32:21;7.70;;;2.17;;
14414;SDS011;7307;50.852;4.314;2022-09-21T01:37:22;7.83;;;1.80;;
14414;SDS011;7307;50.852;4.314;2022-09-21T01:40:15;8.73;;;2.53;;
14414;SDS011;7307;50.852;4.314;2022-09-21T01:42:49;7.87;;;1.80;;
14414;SDS011;7307;50.852;4.314;2022-09-21T01:45:17;10.20;;;2.40;;
14414;SDS011;7307;50.852;4.314;2022-09-21T01:47:50;7.83;;;2.03;;
14414;SDS011;7307;50.852;4.314;2022-09-21T01:50:19;7.07;;;2.10;;
14414;SDS011;7307;50.852;4.314;2022-09-21T01:52:46;5.20;;;2.13;;
14414;SDS011;7307;50.852;4.314;2022-09-21T01:55:24;5.17;;;1.80;;
14414;SDS011;7307;50.852;4.314;2022-09-21T01:58:54;5.97;;;2.17;;
14414;SDS011;7307;50.852;4.314;2022-09-21T02:00:54;5.50;;;1.90;;
14414;SDS011;7307;50.852;4.314;2022-09-21T02:03:28;7.57;;;2.33;;
14414;SDS011;7307;50.852;4.314;2022-09-21T02:06:01;5.93;;;2.47;;
14414;SDS011;7307;50.852;4.314;2022-09-21T02:08:29;6.57;;;1.97;;
14414;SDS011;7307;50.852;4.314;2022-09-21T02:10:56;7.87;;;1.80;;
14414;SDS011;7307;50.852;4.314;2022-09-21T02:13:24;10.33;;;2.70;;
14414;SDS011;7307;50.852;4.314;2022-09-21T02:24:32;5.20;;;2.07;;
14414;SDS011;7307;50.852;4.314;2022-09-21T02:29:54;6.23;;;2.10;;
14414;SDS011;7307;50.852;4.314;2022-09-21T02:32:28;7.80;;;2.10;;
14414;SDS011;7307;50.852;4.314;2022-09-21T02:35:05;6.47;;;1.80;;
14414;SDS011;7307;50.852;4.314;2022-09-21T02:40:22;7.30;;;1.90;;
14414;SDS011;7307;50.852;4.314;2022-09-21T02:43:42;7.53;;;2.33;;
14414;SDS011;7307;50.852;4.314;2022-09-21T02:46:09;9.00;;;1.80;;
14414;SDS011;7307;50.852;4.314;2022-09-21T02:48:47;5.40;;;2.23;;
14414;SDS011;7307;50.852;4.314;2022-09-21T02:51:20;7.87;;;2.10;;
14414;SDS011;7307;50.852;4.314;2022-09-21T02:53:51;4.50;;;2.00;;
14414;SDS011;7307;50.852;4.314;2022-09-21T02:56:18;7.57;;;1.90;;
14414;SDS011;7307;50.852;4.314;2022-09-21T02:58:47;8.63;;;2.10;;
14414;SDS011;7307;50.852;4.314;2022-09-21T03:01:16;5.90;;;2.30;;
14414;SDS011;7307;50.852;4.314;2022-09-21T03:03:43;6.73;;;2.43;;
14414;SDS011;7307;50.852;4.314;2022-09-21T03:06:09;5.47;;;1.93;;
14414;SDS011;7307;50.852;4.314;2022-09-21T03:08:35;7.53;;;2.57;;
14414;SDS011;7307;50.852;4.314;2022-09-21T03:11:00;8.00;;;2.53;;
14414;SDS011;7307;50.852;4.314;2022-09-21T03:13:26;9.17;;;2.50;;
14414;SDS011;7307;50.852;4.314;2022-09-21T03:16:02;7.37;;;2.43;;
14414;SDS011;7307;50.852;4.314;2022-09-21T03:18:31;8.23;;;1.90;;
14414;SDS011;7307;50.852;4.314;2022-09-21T03:20:57;5.63;;;1.83;;
14414;SDS011;7307;50.852;4.314;2022-09-21T03:23:23;5.57;;;2.63;;
14414;SDS011;7307;50.852;4.314;2022-09-21T03:25:49;8.53;;;2.40;;
14414;SDS011;7307;50.852;4.314;2022-09-21T03:28:18;5.40;;;2.20;;
14414;SDS011;7307;50.852;4.314;2022-09-21T03:30:44;6.77;;;2.37;;
14414;SDS011;7307;50.852;4.314;2022-09-21T03:33:11;5.27;;;2.03;;
14414;SDS011;7307;50.852;4.314;2022-09-21T03:35:37;6.93;;;2.17;;
14414;SDS011;7307;50.852;4.314;2022-09-21T03:38:03;8.07;;;2.60;;
14414;SDS011;7307;50.852;4.314;2022-09-21T03:40:29;6.33;;;2.57;;
14414;SDS011;7307;50.852;4.314;2022-09-21T03:42:55;8.87;;;2.00;;
14414;SDS011;7307;50.852;4.314;2022-09-21T03:45:21;5.57;;;2.43;;
14414;SDS011;7307;50.852;4.314;2022-09-21T03:47:47;5.53;;;2.17;;
14414;SDS011;7307;50.852;4.314;2022-09-21T03:50:13;6.30;;;2.17;;
14414;SDS011;7307;50.852;4.314;2022-09-21T03:52:39;7.33;;;2.37;;
14414;SDS011;7307;50.852;4.314;2022-09-21T03:55:05;6.03;;;2.10;;
14414;SDS011;7307;50.852;4.314;2022-09-21T03:57:33;7.10;;;2.27;;
14414;SDS011;7307;50.852;4.314;2022-09-21T03:59:59;6.13;;;2.03;;
14414;SDS011;7307;50.852;4.314;2022-09-21T04:02:27;9.23;;;2.50;;
14414;SDS011;7307;50.852;4.314;2022-09-21T04:04:53;6.13;;;2.03;;
14414;SDS011;7307;50.852;4.314;2022-09-21T04:07:19;8.67;;;2.63;;
14414;SDS011;7307;50.852;4.314;2022-09-21T04:09:44;8.50;;;2.13;;
14414;SDS011;7307;50.852;4.314;2022-09-21T04:12:10;8.43;;;2.17;;
14414;SDS011;7307;50.852;4.314;2022-09-21T04:14:36;7.40;;;2.27;;
14414;SDS011;7307;50.852;4.314;2022-09-21T04:17:01;8.93;;;2.30;;
14414;SDS011;7307;50.852;4.314;2022-09-21T04:19:27;8.50;;;2.27;;
14414;SDS011;7307;50.852;4.314;2022-09-21T04:21:53;6.83;;;2.10;;
14414;SDS011;7307;50.852;4.314;2022-09-21T04:24:20;8.27;;;2.17;;
14414;SDS011;7307;50.852;4.314;2022-09-21T04:26:46;5.50;;;2.27;;
14414;SDS011;7307;50.852;4.314;2022-09-21T04:29:13;6.60;;;2.43;;
14414;SDS011;7307;50.852;4.314;2022-09-21T04:31:39;7.00;;;2.17;;
14414;SDS011;7307;50.852;4.314;2022-09-21T04:34:05;9.13;;;2.97;;
14414;SDS011;7307;50.852;4.314;2022-09-21T04:36:31;8.30;;;2.30;;
14414;SDS011;7307;50.852;4.314;2022-09-21T04:38:57;11.17;;;2.97;;
14414;SDS011;7307;50.852;4.314;2022-09-21T04:41:25;7.73;;;2.30;;
14414;SDS011;7307;50.852;4.314;2022-09-21T04:43:51;5.87;;;1.73;;
14414;SDS011;7307;50.852;4.314;2022-09-21T04:46:18;4.90;;;2.07;;
14414;SDS011;7307;50.852;4.314;2022-09-21T04:48:44;7.70;;;2.20;;
14414;SDS011;7307;50.852;4.314;2022-09-21T04:51:11;4.33;;;1.90;;
14414;SDS011;7307;50.852;4.314;2022-09-21T04:53:38;6.43;;;2.40;;
14414;SDS011;7307;50.852;4.314;2022-09-21T04:56:06;6.40;;;2.50;;
14414;SDS011;7307;50.852;4.314;2022-09-21T04:58:33;6.37;;;2.10;;
14414;SDS011;7307;50.852;4.314;2022-09-21T05:00:59;5.03;;;2.00;;
14414;SDS011;7307;50.852;4.314;2022-09-21T05:03:25;8.27;;;2.43;;
14414;SDS011;7307;50.852;4.314;2022-09-21T05:05:53;6.17;;;2.10;;
14414;SDS011;7307;50.852;4.314;2022-09-21T05:08:20;6.97;;;2.30;;
14414;SDS011;7307;50.852;4.314;2022-09-21T05:11:07;5.87;;;2.20;;
14414;SDS011;7307;50.852;4.314;2022-09-21T05:13:34;7.73;;;2.30;;
14414;SDS011;7307;50.852;4.314;2022-09-21T05:16:00;6.00;;;2.40;;
14414;SDS011;7307;50.852;4.314;2022-09-21T05:18:26;10.80;;;2.77;;
14414;SDS011;7307;50.852;4.314;2022-09-21T05:20:55;9.57;;;2.77;;
14414;SDS011;7307;50.852;4.314;2022-09-21T05:23:22;10.33;;;2.50;;
14414;SDS011;7307;50.852;4.314;2022-09-21T05:25:48;11.00;;;2.40;;
14414;SDS011;7307;50.852;4.314;2022-09-21T05:28:15;10.17;;;2.93;;
14414;SDS011;7307;50.852;4.314;2022-09-21T05:30:43;9.97;;;2.70;;
14414;SDS011;7307;50.852;4.314;2022-09-21T05:33:11;7.80;;;2.70;;
14414;SDS011;7307;50.852;4.314;2022-09-21T05:38:16;17.23;;;4.33;;
14414;SDS011;7307;50.852;4.314;2022-09-21T05:40:43;17.37;;;4.47;;
14414;SDS011;7307;50.852;4.314;2022-09-21T05:43:11;14.63;;;4.07;;
14414;SDS011;7307;50.852;4.314;2022-09-21T05:45:39;14.03;;;3.50;;
14414;SDS011;7307;50.852;4.314;2022-09-21T06:01:45;14.33;;;5.03;;
14414;SDS011;7307;50.852;4.314;2022-09-21T06:04:28;12.93;;;4.27;;
14414;SDS011;7307;50.852;4.314;2022-09-21T06:06:54;12.80;;;3.97;;
14414;SDS011;7307;50.852;4.314;2022-09-21T06:09:19;12.13;;;3.93;;
14414;SDS011;7307;50.852;4.314;2022-09-21T06:11:45;11.77;;;3.90;;
14414;SDS011;7307;50.852;4.314;2022-09-21T06:14:11;14.53;;;4.53;;
14414;SDS011;7307;50.852;4.314;2022-09-21T06:16:37;12.77;;;4.17;;
14414;SDS011;7307;50.852;4.314;2022-09-21T06:19:04;14.07;;;4.30;;
14414;SDS011;7307;50.852;4.314;2022-09-21T06:21:30;13.63;;;4.37;;
14414;SDS011;7307;50.852;4.314;2022-09-21T06:23:55;10.17;;;3.70;;
14414;SDS011;7307;50.852;4.314;2022-09-21T06:26:21;14.03;;;4.43;;
14414;SDS011;7307;50.852;4.314;2022-09-21T06:28:46;11.17;;;3.97;;
14414;SDS011;7307;50.852;4.314;2022-09-21T06:31:12;12.93;;;3.53;;
14414;SDS011;7307;50.852;4.314;2022-09-21T06:33:37;16.33;;;4.10;;
14414;SDS011;7307;50.852;4.314;2022-09-21T06:36:03;12.43;;;4.13;;
14414;SDS011;7307;50.852;4.314;2022-09-21T06:38:29;12.37;;;3.57;;
14414;SDS011;7307;50.852;4.314;2022-09-21T06:40:54;11.43;;;3.87;;
14414;SDS011;7307;50.852;4.314;2022-09-21T06:43:24;12.83;;;3.60;;
14414;SDS011;7307;50.852;4.314;2022-09-21T06:45:53;10.70;;;3.43;;
14414;SDS011;7307;50.852;4.314;2022-09-21T06:48:20;10.47;;;4.10;;
14414;SDS011;7307;50.852;4.314;2022-09-21T06:50:46;7.27;;;3.33;;
14414;SDS011;7307;50.852;4.314;2022-09-21T06:53:12;10.43;;;3.53;;
14414;SDS011;7307;50.852;4.314;2022-09-21T06:55:38;9.27;;;3.40;;
14414;SDS011;7307;50.852;4.314;2022-09-21T06:58:04;9.67;;;3.17;;
14414;SDS011;7307;50.852;4.314;2022-09-21T07:00:30;13.23;;;3.43;;
14414;SDS011;7307;50.852;4.314;2022-09-21T07:02:57;13.50;;;4.60;;
14414;SDS011;7307;50.852;4.314;2022-09-21T07:05:23;12.37;;;3.70;;
14414;SDS011;7307;50.852;4.314;2022-09-21T07:07:48;12.10;;;3.53;;
14414;SDS011;7307;50.852;4.314;2022-09-21T07:10:14;8.33;;;3.10;;
14414;SDS011;7307;50.852;4.314;2022-09-21T07:12:39;10.77;;;3.30;;
14414;SDS011;7307;50.852;4.314;2022-09-21T07:15:05;11.53;;;3.70;;
14414;SDS011;7307;50.852;4.314;2022-09-21T07:17:32;11.00;;;3.50;;
14414;SDS011;7307;50.852;4.314;2022-09-21T07:19:59;12.00;;;3.53;;
14414;SDS011;7307;50.852;4.314;2022-09-21T07:22:27;9.37;;;3.00;;
14414;SDS011;7307;50.852;4.314;2022-09-21T07:24:53;8.37;;;3.53;;
14414;SDS011;7307;50.852;4.314;2022-09-21T07:27:19;11.27;;;3.00;;
14414;SDS011;7307;50.852;4.314;2022-09-21T07:29:44;7.03;;;3.20;;
14414;SDS011;7307;50.852;4.314;2022-09-21T07:32:11;8.03;;;3.77;;
14414;SDS011;7307;50.852;4.314;2022-09-21T07:34:37;10.70;;;3.03;;
14414;SDS011;7307;50.852;4.314;2022-09-21T07:37:03;7.90;;;3.10;;
14414;SDS011;7307;50.852;4.314;2022-09-21T07:39:29;7.80;;;3.03;;
14414;SDS011;7307;50.852;4.314;2022-09-21T07:41:55;10.43;;;3.43;;
14414;SDS011;7307;50.852;4.314;2022-09-21T07:44:22;12.73;;;3.93;;
14414;SDS011;7307;50.852;4.314;2022-09-21T07:46:48;8.00;;;3.03;;
14414;SDS011;7307;50.852;4.314;2022-09-21T07:49:14;9.67;;;3.23;;
14414;SDS011;7307;50.852;4.314;2022-09-21T07:51:39;7.60;;;3.30;;
14414;SDS011;7307;50.852;4.314;2022-09-21T07:54:05;8.83;;;2.80;;
14414;SDS011;7307;50.852;4.314;2022-09-21T07:56:30;12.87;;;3.13;;
14414;SDS011;7307;50.852;4.314;2022-09-21T07:58:56;7.60;;;3.37;;
14414;SDS011;7307;50.852;4.314;2022-09-21T08:01:35;8.87;;;2.90;;
14414;SDS011;7307;50.852;4.314;2022-09-21T08:04:02;8.37;;;2.90;;
14414;SDS011;7307;50.852;4.314;2022-09-21T08:06:30;9.30;;;3.40;;
14414;SDS011;7307;50.852;4.314;2022-09-21T08:08:58;7.70;;;2.90;;
14414;SDS011;7307;50.852;4.314;2022-09-21T08:11:25;5.63;;;2.93;;
14414;SDS011;7307;50.852;4.314;2022-09-21T08:13:52;11.03;;;3.33;;
14414;SDS011;7307;50.852;4.314;2022-09-21T08:16:20;7.57;;;3.03;;
14414;SDS011;7307;50.852;4.314;2022-09-21T08:18:45;8.20;;;3.10;;
14414;SDS011;7307;50.852;4.314;2022-09-21T08:21:11;9.43;;;3.20;;
14414;SDS011;7307;50.852;4.314;2022-09-21T08:23:38;10.80;;;3.40;;
14414;SDS011;7307;50.852;4.314;2022-09-21T08:26:07;10.63;;;2.70;;
14414;SDS011;7307;50.852;4.314;2022-09-21T08:28:35;8.73;;;2.80;;
14414;SDS011;7307;50.852;4.314;2022-09-21T08:31:04;9.33;;;3.17;;
14414;SDS011;7307;50.852;4.314;2022-09-21T08:33:32;6.80;;;2.90;;
14414;SDS011;7307;50.852;4.314;2022-09-21T08:35:58;8.63;;;2.93;;
14414;SDS011;7307;50.852;4.314;2022-09-21T08:38:25;9.63;;;3.20;;
14414;SDS011;7307;50.852;4.314;2022-09-21T08:40:51;6.90;;;2.87;;
14414;SDS011;7307;50.852;4.314;2022-09-21T08:43:25;5.73;;;2.73;;
14414;SDS011;7307;50.852;4.314;2022-09-21T08:46:20;8.13;;;3.00;;
14414;SDS011;7307;50.852;4.314;2022-09-21T08:48:57;5.93;;;2.77;;
14414;SDS011;7307;50.852;4.314;2022-09-21T08:51:31;10.13;;;3.37;;
14414;SDS011;7307;50.852;4.314;2022-09-21T08:54:02;4.03;;;2.30;;
14414;SDS011;7307;50.852;4.314;2022-09-21T08:56:36;8.10;;;2.93;;
14414;SDS011;7307;50.852;4.314;2022-09-21T08:59:01;6.77;;;2.53;;
14414;SDS011;7307;50.852;4.314;2022-09-21T09:04:52;8.73;;;2.53;;
14414;SDS011;7307;50.852;4.314;2022-09-21T09:23:47;6.33;;;2.50;;
14414;SDS011;7307;50.852;4.314;2022-09-21T09:26:22;5.67;;;2.40;;
14414;SDS011;7307;50.852;4.314;2022-09-21T09:28:56;6.10;;;2.80;;
14414;SDS011;7307;50.852;4.314;2022-09-21T09:31:31;5.93;;;3.13;;
14414;SDS011;7307;50.852;4.314;2022-09-21T09:36:47;6.30;;;2.43;;
14414;SDS011;7307;50.852;4.314;2022-09-21T09:39:18;4.90;;;2.30;;
14414;SDS011;7307;50.852;4.314;2022-09-21T09:47:08;6.23;;;2.50;;
14414;SDS011;7307;50.852;4.314;2022-09-21T09:52:52;6.90;;;2.33;;
14414;SDS011;7307;50.852;4.314;2022-09-21T09:55:37;6.90;;;2.67;;
14414;SDS011;7307;50.852;4.314;2022-09-21T09:58:05;6.30;;;3.10;;
14414;SDS011;7307;50.852;4.314;2022-09-21T10:00:40;6.17;;;2.33;;
14414;SDS011;7307;50.852;4.314;2022-09-21T10:03:14;4.60;;;2.47;;
14414;SDS011;7307;50.852;4.314;2022-09-21T10:05:42;5.40;;;2.90;;
14414;SDS011;7307;50.852;4.314;2022-09-21T10:08:25;5.40;;;2.00;;
14414;SDS011;7307;50.852;4.314;2022-09-21T10:11:00;4.97;;;2.30;;
14414;SDS011;7307;50.852;4.314;2022-09-21T10:13:30;3.77;;;1.90;;
14414;SDS011;7307;50.852;4.314;2022-09-21T10:18:26;5.93;;;2.53;;
14414;SDS011;7307;50.852;4.314;2022-09-21T10:23:55;4.63;;;2.03;;
14414;SDS011;7307;50.852;4.314;2022-09-21T10:26:23;5.70;;;2.13;;
14414;SDS011;7307;50.852;4.314;2022-09-21T10:29:02;5.30;;;2.40;;
14414;SDS011;7307;50.852;4.314;2022-09-21T10:31:52;5.60;;;2.40;;
14414;SDS011;7307;50.852;4.314;2022-09-21T10:34:21;3.80;;;1.90;;
14414;SDS011;7307;50.852;4.314;2022-09-21T10:36:49;7.40;;;2.73;;
14414;SDS011;7307;50.852;4.314;2022-09-21T10:39:20;4.33;;;2.23;;
14414;SDS011;7307;50.852;4.314;2022-09-21T10:41:57;4.23;;;2.33;;
14414;SDS011;7307;50.852;4.314;2022-09-21T10:50:05;4.67;;;2.30;;
14414;SDS011;7307;50.852;4.314;2022-09-21T10:52:45;4.50;;;2.37;;
14414;SDS011;7307;50.852;4.314;2022-09-21T10:55:19;4.57;;;2.03;;
14414;SDS011;7307;50.852;4.314;2022-09-21T10:57:47;5.77;;;2.37;;
14414;SDS011;7307;50.852;4.314;2022-09-21T11:02:48;8.77;;;2.23;;
14414;SDS011;7307;50.852;4.314;2022-09-21T11:05:19;3.43;;;1.77;;
14414;SDS011;7307;50.852;4.314;2022-09-21T11:10:27;7.23;;;2.80;;
14414;SDS011;7307;50.852;4.314;2022-09-21T11:13:08;3.93;;;2.23;;
14414;SDS011;7307;50.852;4.314;2022-09-21T11:16:00;6.03;;;2.30;;
14414;SDS011;7307;50.852;4.314;2022-09-21T11:29:25;4.67;;;1.90;;
14414;SDS011;7307;50.852;4.314;2022-09-21T11:35:27;4.43;;;2.10;;
14414;SDS011;7307;50.852;4.314;2022-09-21T11:43:15;4.87;;;2.10;;
14414;SDS011;7307;50.852;4.314;2022-09-21T11:45:49;4.93;;;1.87;;
14414;SDS011;7307;50.852;4.314;2022-09-21T11:57:10;4.97;;;1.63;;
14414;SDS011;7307;50.852;4.314;2022-09-21T11:59:34;3.63;;;1.77;;
14414;SDS011;7307;50.852;4.314;2022-09-21T12:16:31;6.03;;;1.90;;
14414;SDS011;7307;50.852;4.314;2022-09-21T12:22:08;3.93;;;2.07;;
14414;SDS011;7307;50.852;4.314;2022-09-21T12:24:42;1.93;;;1.40;;
14414;SDS011;7307;50.852;4.314;2022-09-21T12:30:16;3.20;;;1.70;;
14414;SDS011;7307;50.852;4.314;2022-09-21T12:35:16;3.53;;;1.90;;
14414;SDS011;7307;50.852;4.314;2022-09-21T12:37:48;3.30;;;1.97;;
14414;SDS011;7307;50.852;4.314;2022-09-21T12:40:26;5.80;;;1.77;;
14414;SDS011;7307;50.852;4.314;2022-09-21T12:42:56;4.73;;;1.80;;
14414;SDS011;7307;50.852;4.314;2022-09-21T12:45:47;2.97;;;1.90;;
14414;SDS011;7307;50.852;4.314;2022-09-21T12:48:36;2.67;;;1.50;;
14414;SDS011;7307;50.852;4.314;2022-09-21T12:53:44;2.40;;;1.83;;
14414;SDS011;7307;50.852;4.314;2022-09-21T12:56:19;4.77;;;2.37;;
14414;SDS011;7307;50.852;4.314;2022-09-21T13:09:33;2.40;;;1.80;;
14414;SDS011;7307;50.852;4.314;2022-09-21T13:12:16;2.70;;;1.60;;
14414;SDS011;7307;50.852;4.314;2022-09-21T13:14:51;4.20;;;1.80;;
14414;SDS011;7307;50.852;4.314;2022-09-21T13:17:24;4.10;;;1.70;;
14414;SDS011;7307;50.852;4.314;2022-09-21T13:19:54;3.30;;;1.60;;
14414;SDS011;7307;50.852;4.314;2022-09-21T13:22:28;3.67;;;1.70;;
14414;SDS011;7307;50.852;4.314;2022-09-21T13:24:58;4.33;;;2.37;;
14414;SDS011;7307;50.852;4.314;2022-09-21T13:38:32;3.97;;;2.10;;
14414;SDS011;7307;50.852;4.314;2022-09-21T13:51:35;2.67;;;1.73;;
14414;SDS011;7307;50.852;4.314;2022-09-21T13:54:54;3.30;;;1.57;;
14414;SDS011;7307;50.852;4.314;2022-09-21T13:57:28;3.30;;;1.43;;
14414;SDS011;7307;50.852;4.314;2022-09-21T14:05:34;2.23;;;1.40;;
14414;SDS011;7307;50.852;4.314;2022-09-21T14:10:53;5.07;;;2.00;;
14414;SDS011;7307;50.852;4.314;2022-09-21T14:13:35;2.37;;;1.70;;
14414;SDS011;7307;50.852;4.314;2022-09-21T14:19:00;3.03;;;1.50;;
14414;SDS011;7307;50.852;4.314;2022-09-21T14:27:48;3.23;;;1.50;;
14414;SDS011;7307;50.852;4.314;2022-09-21T14:30:04;3.00;;;1.43;;
14414;SDS011;7307;50.852;4.314;2022-09-21T14:35:27;3.27;;;1.67;;
14414;SDS011;7307;50.852;4.314;2022-09-21T14:38:02;2.53;;;1.40;;
14414;SDS011;7307;50.852;4.314;2022-09-21T14:40:35;3.90;;;1.60;;
14414;SDS011;7307;50.852;4.314;2022-09-21T14:43:06;2.50;;;1.50;;
14414;SDS011;7307;50.852;4.314;2022-09-21T14:59:49;2.77;;;1.53;;
14414;SDS011;7307;50.852;4.314;2022-09-21T15:02:30;2.40;;;1.30;;
14414;SDS011;7307;50.852;4.314;2022-09-21T15:05:03;2.87;;;1.67;;
14414;SDS011;7307;50.852;4.314;2022-09-21T15:07:41;2.57;;;1.40;;
14414;SDS011;7307;50.852;4.314;2022-09-21T15:10:49;2.83;;;1.40;;
14414;SDS011;7307;50.852;4.314;2022-09-21T15:16:40;2.13;;;1.50;;
14414;SDS011;7307;50.852;4.314;2022-09-21T15:21:44;1.73;;;1.60;;
14414;SDS011;7307;50.852;4.314;2022-09-21T15:24:19;3.13;;;1.63;;
14414;SDS011;7307;50.852;4.314;2022-09-21T15:29:29;1.60;;;1.13;;
14414;SDS011;7307;50.852;4.314;2022-09-21T15:31:56;2.63;;;1.50;;
14414;SDS011;7307;50.852;4.314;2022-09-21T15:34:23;3.50;;;1.37;;
14414;SDS011;7307;50.852;4.314;2022-09-21T15:36:49;2.53;;;1.70;;
14414;SDS011;7307;50.852;4.314;2022-09-21T15:39:27;3.13;;;1.40;;
14414;SDS011;7307;50.852;4.314;2022-09-21T15:42:15;2.87;;;1.60;;
14414;SDS011;7307;50.852;4.314;2022-09-21T15:44:46;2.50;;;1.50;;
14414;SDS011;7307;50.852;4.314;2022-09-21T15:47:18;2.30;;;1.40;;
14414;SDS011;7307;50.852;4.314;2022-09-21T15:49:46;2.30;;;1.30;;
14414;SDS011;7307;50.852;4.314;2022-09-21T15:55:05;2.33;;;1.50;;
14414;SDS011;7307;50.852;4.314;2022-09-21T15:57:37;2.17;;;1.40;;
14414;SDS011;7307;50.852;4.314;2022-09-21T16:02:39;2.40;;;1.30;;
14414;SDS011;7307;50.852;4.314;2022-09-21T16:05:06;4.00;;;1.73;;
14414;SDS011;7307;50.852;4.314;2022-09-21T16:07:38;2.33;;;1.40;;
14414;SDS011;7307;50.852;4.314;2022-09-21T16:16:11;2.87;;;1.50;;
14414;SDS011;7307;50.852;4.314;2022-09-21T16:18:39;2.33;;;1.50;;
14414;SDS011;7307;50.852;4.314;2022-09-21T16:23:56;2.47;;;1.50;;
14414;SDS011;7307;50.852;4.314;2022-09-21T16:26:34;2.93;;;1.17;;
14414;SDS011;7307;50.852;4.314;2022-09-21T16:31:33;2.17;;;1.33;;
14414;SDS011;7307;50.852;4.314;2022-09-21T16:34:12;2.67;;;1.60;;
14414;SDS011;7307;50.852;4.314;2022-09-21T16:37:00;2.97;;;1.40;;
14414;SDS011;7307;50.852;4.314;2022-09-21T16:39:52;1.80;;;1.10;;
14414;SDS011;7307;50.852;4.314;2022-09-21T16:42:20;2.33;;;1.23;;
14414;SDS011;7307;50.852;4.314;2022-09-21T16:44:46;2.47;;;1.50;;
14414;SDS011;7307;50.852;4.314;2022-09-21T16:47:14;2.17;;;1.30;;
14414;SDS011;7307;50.852;4.314;2022-09-21T16:49:51;2.20;;;1.33;;
14414;SDS011;7307;50.852;4.314;2022-09-21T16:52:19;2.80;;;1.60;;
14414;SDS011;7307;50.852;4.314;2022-09-21T16:54:45;1.97;;;1.17;;
14414;SDS011;7307;50.852;4.314;2022-09-21T16:57:12;2.50;;;1.43;;
14414;SDS011;7307;50.852;4.314;2022-09-21T16:59:38;1.80;;;1.30;;
14414;SDS011;7307;50.852;4.314;2022-09-21T17:02:04;2.00;;;1.20;;
14414;SDS011;7307;50.852;4.314;2022-09-21T17:04:31;2.60;;;1.17;;
14414;SDS011;7307;50.852;4.314;2022-09-21T17:06:58;1.60;;;1.30;;
14414;SDS011;7307;50.852;4.314;2022-09-21T17:12:09;2.07;;;1.33;;
14414;SDS011;7307;50.852;4.314;2022-09-21T17:14:37;2.43;;;1.53;;
14414;SDS011;7307;50.852;4.314;2022-09-21T17:17:05;6.27;;;1.53;;
14414;SDS011;7307;50.852;4.314;2022-09-21T17:19:36;3.87;;;1.40;;
14414;SDS011;7307;50.852;4.314;2022-09-21T17:22:02;3.30;;;1.43;;
14414;SDS011;7307;50.852;4.314;2022-09-21T17:24:29;3.53;;;1.60;;
14414;SDS011;7307;50.852;4.314;2022-09-21T17:26:55;3.13;;;1.17;;
14414;SDS011;7307;50.852;4.314;2022-09-21T17:29:21;2.80;;;1.07;;
14414;SDS011;7307;50.852;4.314;2022-09-21T17:31:53;4.60;;;1.60;;
14414;SDS011;7307;50.852;4.314;2022-09-21T17:34:24;1.93;;;1.30;;
14414;SDS011;7307;50.852;4.314;2022-09-21T17:36:51;2.97;;;1.43;;
14414;SDS011;7307;50.852;4.314;2022-09-21T17:39:18;2.37;;;1.33;;
14414;SDS011;7307;50.852;4.314;2022-09-21T17:41:48;1.80;;;1.47;;
14414;SDS011;7307;50.852;4.314;2022-09-21T17:45:04;1.87;;;1.30;;
14414;SDS011;7307;50.852;4.314;2022-09-21T17:47:16;4.17;;;1.27;;
14414;SDS011;7307;50.852;4.314;2022-09-21T17:49:47;2.73;;;1.30;;
14414;SDS011;7307;50.852;4.314;2022-09-21T17:52:14;3.83;;;1.60;;
14414;SDS011;7307;50.852;4.314;2022-09-21T17:55:00;3.40;;;1.10;;
14414;SDS011;7307;50.852;4.314;2022-09-21T18:00:21;3.07;;;1.40;;
14414;SDS011;7307;50.852;4.314;2022-09-21T18:02:48;4.77;;;1.30;;
14414;SDS011;7307;50.852;4.314;2022-09-21T18:05:22;2.60;;;1.37;;
14414;SDS011;7307;50.852;4.314;2022-09-21T18:07:50;2.43;;;1.23;;
14414;SDS011;7307;50.852;4.314;2022-09-21T18:10:16;3.03;;;1.30;;
14414;SDS011;7307;50.852;4.314;2022-09-21T18:15:21;2.57;;;1.50;;
14414;SDS011;7307;50.852;4.314;2022-09-21T18:20:46;2.30;;;1.30;;
14414;SDS011;7307;50.852;4.314;2022-09-21T18:23:27;4.83;;;1.50;;
14414;SDS011;7307;50.852;4.314;2022-09-21T18:26:12;4.23;;;1.27;;
14414;SDS011;7307;50.852;4.314;2022-09-21T18:28:42;4.00;;;1.50;;
14414;SDS011;7307;50.852;4.314;2022-09-21T18:31:22;2.87;;;1.20;;
14414;SDS011;7307;50.852;4.314;2022-09-21T18:36:42;2.23;;;1.20;;
14414;SDS011;7307;50.852;4.314;2022-09-21T18:39:21;3.33;;;1.50;;
14414;SDS011;7307;50.852;4.314;2022-09-21T18:52:53;1.93;;;1.20;;
14414;SDS011;7307;50.852;4.314;2022-09-21T18:55:27;2.17;;;1.20;;
14414;SDS011;7307;50.852;4.314;2022-09-21T18:57:57;1.83;;;1.13;;
14414;SDS011;7307;50.852;4.314;2022-09-21T19:00:25;1.90;;;1.20;;
14414;SDS011;7307;50.852;4.314;2022-09-21T19:02:58;2.80;;;1.10;;
14414;SDS011;7307;50.852;4.314;2022-09-21T19:05:25;3.37;;;1.30;;
14414;SDS011;7307;50.852;4.314;2022-09-21T19:11:03;1.70;;;1.20;;
14414;SDS011;7307;50.852;4.314;2022-09-21T19:16:34;2.20;;;1.27;;
14414;SDS011;7307;50.852;4.314;2022-09-21T19:22:23;3.60;;;1.20;;
14414;SDS011;7307;50.852;4.314;2022-09-21T19:27:37;1.73;;;1.30;;
14414;SDS011;7307;50.852;4.314;2022-09-21T19:37:58;2.07;;;1.20;;
14414;SDS011;7307;50.852;4.314;2022-09-21T19:40:31;2.63;;;1.07;;
14414;SDS011;7307;50.852;4.314;2022-09-21T19:48:10;2.80;;;1.60;;
14414;SDS011;7307;50.852;4.314;2022-09-21T19:50:51;1.67;;;1.27;;
14414;SDS011;7307;50.852;4.314;2022-09-21T19:53:19;2.93;;;1.30;;
14414;SDS011;7307;50.852;4.314;2022-09-21T19:56:13;2.73;;;1.37;;
14414;SDS011;7307;50.852;4.314;2022-09-21T19:58:59;2.03;;;1.17;;
14414;SDS011;7307;50.852;4.314;2022-09-21T20:01:49;1.73;;;1.03;;
14414;SDS011;7307;50.852;4.314;2022-09-21T20:04:41;1.97;;;1.30;;
14414;SDS011;7307;50.852;4.314;2022-09-21T20:07:18;1.40;;;1.13;;
14414;SDS011;7307;50.852;4.314;2022-09-21T20:15:46;1.40;;;1.20;;
14414;SDS011;7307;50.852;4.314;2022-09-21T20:21:25;3.67;;;1.37;;
14414;SDS011;7307;50.852;4.314;2022-09-21T20:24:01;3.27;;;1.50;;
14414;SDS011;7307;50.852;4.314;2022-09-21T20:26:33;2.40;;;1.27;;